»·PEaware :: DAL4243 KLAX-KPHX

DAL4243 :: KLAX-KPHX

FLIGHT INFORMATION

Flight Status: Arrived
Operator:
Delta Air Lines
More flights by this operator :: More flights under this callsign
Pilot: Sean B. (13609)
Aircraft: BOEING 757-200
(B752)
More flights by this aircraft type
Origin: KLAX Los Angeles Intl
United States
Destination: KPHX Phoenix Sky Harbor Intl
United States
More flights between these airports :: More routes between these airports
Route: +HOLTZ1 TRM BLH HYDRR1
File this flight plan on PilotEdge
Remarks:
Altitude:
(Current/Filed)
31,000ft
Speed:
(Current/Filed)
420kts
Departed: 02-Jan-17 06:44 PM
Arrived: 02-Jan-17 07:43 PM
Distance/Time
Traveled:
321nm/0:59
Distance/Time
To Go:
Arrived

Flight Plot

Page will automatically refresh every two minutes.


Map Options




Map Legend


Flown Route
Filed Route
Departure Airport
Arrival Airport
Navaid (VOR, NDB)
Fix

Horizontal Profiles

Position Reports

Time Latitude Longitude Heading Altitude Ground
Speed
02-Jan-17 18:08 33.940224 -118.404963 83 126ft 0kts
02-Jan-17 18:09 33.940224 -118.404963 83 126ft 0kts
02-Jan-17 18:10 33.940224 -118.404963 83 126ft 0kts
02-Jan-17 18:11 33.940224 -118.404963 83 126ft 0kts
02-Jan-17 18:12 33.940224 -118.404963 83 126ft 0kts
02-Jan-17 18:13 33.940224 -118.404963 83 126ft 0kts
02-Jan-17 18:14 33.940224 -118.404963 83 126ft 0kts
02-Jan-17 18:15 33.940224 -118.404963 83 126ft 0kts
02-Jan-17 18:16 33.940224 -118.404963 83 126ft 0kts
02-Jan-17 18:17 33.940224 -118.404963 83 126ft 0kts
02-Jan-17 18:18 33.940224 -118.404963 83 126ft 0kts
02-Jan-17 18:19 33.940224 -118.404963 83 126ft 0kts
02-Jan-17 18:20 33.940224 -118.404963 83 126ft 0kts
02-Jan-17 18:21 33.940224 -118.404963 83 126ft 0kts
02-Jan-17 18:22 33.940224 -118.404963 83 126ft 0kts
02-Jan-17 18:23 33.940224 -118.404963 83 126ft 0kts
02-Jan-17 18:24 33.940224 -118.404963 83 126ft 0kts
02-Jan-17 18:25 33.940224 -118.404963 83 126ft 0kts
02-Jan-17 18:26 33.940220 -118.405004 83 126ft 1kts
02-Jan-17 18:27 33.940230 -118.405479 143 126ft 1kts
02-Jan-17 18:28 33.940320 -118.405517 174 126ft 0kts
02-Jan-17 18:29 33.940320 -118.405517 174 126ft 0kts
02-Jan-17 18:30 33.940320 -118.405517 174 126ft 0kts
02-Jan-17 18:31 33.940320 -118.405517 174 126ft 0kts
02-Jan-17 18:32 33.940320 -118.405517 174 126ft 0kts
02-Jan-17 18:33 33.940320 -118.405517 174 126ft 0kts
02-Jan-17 18:34 33.940320 -118.405517 174 126ft 0kts
02-Jan-17 18:35 33.939803 -118.405446 173 126ft 9kts
02-Jan-17 18:36 33.938362 -118.404047 83 124ft 13kts
02-Jan-17 18:37 33.938799 -118.399775 83 119ft 20kts
02-Jan-17 18:38 33.939396 -118.393938 83 111ft 25kts
02-Jan-17 18:39 33.940177 -118.386111 83 107ft 23kts
02-Jan-17 18:40 33.940690 -118.380766 105 103ft 0kts
02-Jan-17 18:41 33.940690 -118.380766 105 103ft 0kts
02-Jan-17 18:42 33.940690 -118.380766 105 103ft 0kts
02-Jan-17 18:43 33.940161 -118.380230 188 103ft 12kts
02-Jan-17 18:44 33.937647 -118.401446 261 534ft 174kts
02-Jan-17 18:45 33.931109 -118.450343 242 2439ft 203kts
02-Jan-17 18:46 33.902087 -118.498734 229 3120ft 227kts
02-Jan-17 18:47 33.863745 -118.551617 214 5816ft 237kts
02-Jan-17 18:48 33.807909 -118.550670 174 8930ft 265kts
02-Jan-17 18:49 33.751227 -118.536280 173 11075ft 302kts
02-Jan-17 18:50 33.681339 -118.486008 127 12894ft 388kts
02-Jan-17 18:51 33.649278 -118.364268 106 15393ft 416kts
02-Jan-17 18:52 33.645230 -118.249080 90 17006ft 438kts
02-Jan-17 18:53 33.645229 -118.153831 90 16998ft 437kts
02-Jan-17 18:54 33.645158 -118.053216 90 17458ft 447kts
02-Jan-17 18:55 33.644935 -117.917209 90 19887ft 465kts
02-Jan-17 18:56 33.644556 -117.780309 90 21933ft 484kts
02-Jan-17 18:57 33.644023 -117.641020 91 22996ft 494kts
02-Jan-17 18:58 33.643314 -117.499759 91 23368ft 502kts
02-Jan-17 18:59 33.642288 -117.334178 92 25359ft 519kts
02-Jan-17 19:00 33.640998 -117.163530 92 26987ft 536kts
02-Jan-17 19:01 33.639530 -116.996251 93 28753ft 542kts
02-Jan-17 19:02 33.637903 -116.822361 93 30443ft 547kts
02-Jan-17 19:03 33.635794 -116.657371 92 31184ft 544kts
02-Jan-17 19:04 33.633795 -116.480375 92 31193ft 544kts
02-Jan-17 19:05 33.631041 -116.309379 93 31141ft 543kts
02-Jan-17 19:06 33.628612 -116.133079 92 31141ft 550kts
02-Jan-17 19:07 33.625481 -115.953275 93 31146ft 551kts
02-Jan-17 19:08 33.621696 -115.784431 93 30083ft 549kts
02-Jan-17 19:09 33.618524 -115.636311 93 29012ft 543kts
02-Jan-17 19:10 33.615524 -115.500641 93 28163ft 542kts
02-Jan-17 19:11 33.611918 -115.346051 94 27224ft 539kts
02-Jan-17 19:12 33.608158 -115.190617 93 26152ft 532kts
02-Jan-17 19:13 33.605739 -115.068726 92 25290ft 523kts
02-Jan-17 19:14 33.602351 -114.929045 93 24300ft 512kts
02-Jan-17 19:15 33.597399 -114.777070 98 24149ft 508kts
02-Jan-17 19:16 33.570263 -114.626413 106 24065ft 483kts
02-Jan-17 19:17 33.541963 -114.481254 106 23183ft 471kts
02-Jan-17 19:18 33.515194 -114.344939 106 23156ft 470kts
02-Jan-17 19:19 33.487562 -114.205090 106 23139ft 471kts
02-Jan-17 19:20 33.461929 -114.075385 106 23145ft 471kts
02-Jan-17 19:21 33.437577 -113.953201 106 23144ft 471kts
02-Jan-17 19:22 33.402886 -113.780523 106 23154ft 471kts
02-Jan-17 19:23 33.376802 -113.651714 106 21875ft 477kts
02-Jan-17 19:24 33.352374 -113.531536 106 20316ft 445kts
02-Jan-17 19:25 33.326590 -113.394851 103 18948ft 438kts
02-Jan-17 19:26 33.302781 -113.258960 103 17023ft 425kts
02-Jan-17 19:27 33.286996 -113.155001 101 15536ft 402kts
02-Jan-17 19:28 33.275726 -113.051748 88 14708ft 376kts
02-Jan-17 19:29 33.278052 -112.950924 87 13556ft 363kts
02-Jan-17 19:30 33.280405 -112.871949 88 11757ft 382kts
02-Jan-17 19:31 33.300576 -112.772805 66 10512ft 358kts
02-Jan-17 19:32 33.335809 -112.677133 64 10290ft 298kts
02-Jan-17 19:33 33.366329 -112.597094 64 9032ft 285kts
02-Jan-17 19:34 33.396538 -112.517805 64 8252ft 272kts
02-Jan-17 19:35 33.425254 -112.437324 66 7498ft 252kts
02-Jan-17 19:36 33.428973 -112.372901 88 6704ft 248kts
02-Jan-17 19:37 33.429293 -112.286656 88 5497ft 238kts
02-Jan-17 19:38 33.429316 -112.232303 89 4604ft 234kts
02-Jan-17 19:39 33.428793 -112.166015 86 3507ft 177kts
02-Jan-17 19:40 33.428834 -112.114337 86 2597ft 154kts
02-Jan-17 19:41 33.428629 -112.070125 87 1819ft 144kts
02-Jan-17 19:42 33.428853 -112.028727 88 1183ft 137kts
02-Jan-17 19:43 33.429457 -112.007841 42 1126ft 15kts
02-Jan-17 19:44 33.429816 -112.007390 54 1127ft 0kts
02-Jan-17 19:45 33.431254 -112.006264 1 1129ft 14kts
02-Jan-17 19:46 33.432431 -112.007591 355 1132ft 4kts
02-Jan-17 19:47 33.433964 -112.007813 285 1133ft 4kts
02-Jan-17 19:48 33.434055 -112.008141 289 1133ft 0kts
02-Jan-17 19:49 33.434055 -112.008141 289 1133ft 0kts
02-Jan-17 19:50 33.434055 -112.008141 289 1133ft 0kts
02-Jan-17 19:51 33.434055 -112.008141 289 1133ft 0kts

Navigation Log

Ident Type
1. KLAX Airport
2. PEVEE Fix
3. HOLTZ Fix
4. TRM Navaid
5. BLH Navaid
6. KPHX Airport